ADDS METAR Data INFO
IDs: Format: Raw Decoded Include TAF

Data at: 0826 UTC 20 Apr 2018

METAR for:KX60 (Williston Muni, FL, US)
Text:KX60 200815Z AUTO 00000KT 2SM BR 17/16 A3007 RMK A01
Temperature: 17.0°C ( 63°F)
Dewpoint: 16.0°C ( 61°F) [RH = 94%]
Pressure (altimeter):30.07 inches Hg (1018.4 mb)
Winds:calm
Visibility: 2.00 sm ( 3.22 km)
Weather:BR (mist)
QC Flag:automated observation with no human augmentation